Time;durP1;ratioP1;P1;durP2;ratioP2;P2;SDS_P1;SDS_P2;PMS_P1;PMS_P2;Temp;Humidity;BMP_temperature;BMP_pressure;BME280_temperature;BME280_humidity;BME280_pressure;Samples;Min_cycle;Max_cycle;Signal;HPM_P1;HPM_P2
2021/01/30 00:02:13;;;;;;;20.33;9.73;;;;;;;-2.02;65.86;98617.12;1695049;80;21185;-94
2021/01/30 00:05:29;;;;;;;13.33;8.50;;;;;;;-2.03;65.66;98615.00;1700602;79;21343;-94
2021/01/30 00:08:37;;;;;;;15.13;10.10;;;;;;;-2.01;65.61;98618.77;1676492;82;21124;-94
2021/01/30 00:11:54;;;;;;;13.90;10.57;;;;;;;-1.99;65.37;98624.17;1586213;85;21260;-96
2021/01/30 00:18:23;;;;;;;14.20;10.43;;;;;;;-1.94;65.19;98642.48;1656844;82;21243;-96
2021/01/30 00:21:34;;;;;;;17.43;10.90;;;;;;;-1.96;65.28;98643.93;1642910;84;21152;-95
2021/01/30 00:25:15;;;;;;;11.00;8.83;;;;;;;-1.97;65.30;98648.34;1658828;82;21150;-96
2021/01/30 00:27:59;;;;;;;18.60;11.20;;;;;;;-1.97;65.28;98636.59;1828095;76;23950;-94
2021/01/30 00:32:52;;;;;;;16.13;13.03;;;;;;;-1.99;65.59;98641.14;1795427;76;22496;-94
2021/01/30 00:35:45;;;;;;;19.77;12.87;;;;;;;-3.41;65.33;98444.42;1772270;80;21179;-93
2021/01/30 00:38:13;;;;;;;16.80;11.97;;;;;;;-2.10;65.39;98655.73;1778567;80;21270;-96
2021/01/30 00:40:58;;;;;;;16.07;11.23;;;;;;;-2.12;65.41;98659.47;1758628;80;21184;-91
2021/01/30 00:43:38;;;;;;;17.23;10.30;;;;;;;-2.10;65.19;98660.13;1718430;80;21147;-93
2021/01/30 00:46:30;;;;;;;13.80;9.87;;;;;;;-2.11;65.17;98664.55;1776465;80;21172;-95
2021/01/30 00:49:07;;;;;;;16.10;10.63;;;;;;;-2.17;64.64;98665.95;1759861;79;21164;-94
2021/01/30 00:52:36;;;;;;;11.67;8.60;;;;;;;-2.12;64.72;98668.60;1756622;78;21136;-91
2021/01/30 00:58:19;;;;;;;14.80;11.23;;;;;;;-2.12;64.67;98670.72;1655663;86;21156;-95
2021/01/30 01:01:13;;;;;;;14.50;10.30;;;;;;;-2.13;64.64;98667.76;1619439;86;21074;-94
2021/01/30 01:04:22;;;;;;;18.73;11.20;;;;;;;-2.23;64.91;98675.66;1624768;83;21233;-92
2021/01/30 01:06:52;;;;;;;17.30;12.13;;;;;;;-2.29;64.90;98674.95;1610627;87;21241;-93
2021/01/30 01:09:47;;;;;;;12.93;9.63;;;;;;;-2.31;65.08;98674.28;1595338;86;21190;-94
2021/01/30 01:12:16;;;;;;;16.23;9.53;;;;;;;-2.35;65.11;98669.83;1606751;86;21174;-92
2021/01/30 01:14:58;;;;;;;16.50;11.50;;;;;;;-2.33;65.15;98678.83;1565110;88;21205;-94
2021/01/30 01:17:54;;;;;;;18.53;11.90;;;;;;;-2.37;65.33;98678.79;1595837;90;21210;-95
2021/01/30 01:20:28;;;;;;;15.03;10.30;;;;;;;-2.44;65.63;98673.31;1572100;90;21203;-93
2021/01/30 01:23:00;;;;;;;16.40;10.73;;;;;;;-2.46;65.76;98680.47;1550196;90;21158;-96
2021/01/30 01:25:34;;;;;;;18.70;12.43;;;;;;;-2.49;65.88;98694.29;1539712;90;21265;-93
2021/01/30 01:28:24;;;;;;;15.17;11.43;;;;;;;-2.51;65.84;98694.43;1622442;84;21220;-92
2021/01/30 01:30:55;;;;;;;15.00;11.63;;;;;;;-2.55;65.91;98689.98;1625506;84;21215;-93
2021/01/30 01:33:25;;;;;;;16.43;11.77;;;;;;;-2.58;65.87;98698.12;1621871;85;21060;-92
2021/01/30 01:35:56;;;;;;;15.33;9.00;;;;;;;-2.60;65.99;98690.08;1631609;87;21235;-96
2021/01/30 01:38:35;;;;;;;17.23;11.97;;;;;;;-2.66;66.01;98698.00;1617488;86;21184;-94
2021/01/30 01:41:10;;;;;;;13.13;10.03;;;;;;;-2.69;66.15;98704.83;1611690;85;21163;-94
2021/01/30 01:43:58;;;;;;;13.10;10.77;;;;;;;-2.73;66.12;98700.86;1626572;85;21397;-92
2021/01/30 01:47:33;;;;;;;15.97;9.53;;;;;;;-2.78;66.27;98706.98;1610060;87;21191;-94
2021/01/30 01:50:45;;;;;;;16.83;12.27;;;;;;;-2.83;66.37;98702.67;1609109;88;21250;-96
2021/01/30 02:12:58;;;;;;;14.87;10.80;;;;;;;-3.32;67.58;98703.61;1695275;81;21294;-91
2021/01/30 02:15:27;;;;;;;17.45;10.25;;;;;;;-3.39;67.62;98705.16;1709979;79;21129;-94
2021/01/30 02:18:25;;;;;;;15.80;11.60;;;;;;;-3.45;67.62;98700.97;1709727;81;21713;-93
2021/01/30 02:21:21;;;;;;;14.70;11.03;;;;;;;-3.45;67.57;98706.98;1709204;82;21145;-95
2021/01/30 02:24:24;;;;;;;13.03;9.87;;;;;;;-3.45;67.63;98711.38;1678369;82;21126;-96
2021/01/30 02:27:31;;;;;;;15.43;11.55;;;;;;;-3.50;67.73;98713.12;1692457;81;21247;-96
2021/01/30 02:31:08;;;;;;;15.20;10.53;;;;;;;-3.55;67.82;98708.80;1702968;80;21164;-94
2021/01/30 02:34:33;;;;;;;15.10;9.87;;;;;;;-3.58;67.71;98703.84;1680084;83;21111;-94
2021/01/30 02:37:11;;;;;;;17.30;12.03;;;;;;;-3.57;67.82;98699.00;1602661;87;21364;-93
2021/01/30 02:39:57;;;;;;;15.27;10.80;;;;;;;-3.53;67.63;98699.05;1646043;86;21372;-93
2021/01/30 02:42:33;;;;;;;15.87;11.77;;;;;;;-3.57;67.58;98700.30;1609893;88;21221;-93
2021/01/30 02:45:09;;;;;;;14.50;11.70;;;;;;;-3.56;67.49;98695.41;1595718;86;21163;-95
2021/01/30 02:48:05;;;;;;;17.13;12.33;;;;;;;-3.59;67.56;98679.59;1620274;84;21216;-90
2021/01/30 02:51:08;;;;;;;16.27;11.83;;;;;;;-3.56;67.59;98677.19;1595832;85;21179;-96
2021/01/30 02:54:17;;;;;;;15.40;11.30;;;;;;;-3.48;67.45;98692.95;1614714;87;21211;-93
2021/01/30 02:56:44;;;;;;;19.47;11.47;;;;;;;-3.45;67.38;98684.84;1621662;84;21165;-92
2021/01/30 02:59:18;;;;;;;14.97;10.90;;;;;;;-3.41;67.35;98674.52;1580252;88;21352;-93
2021/01/30 03:01:46;;;;;;;19.63;13.00;;;;;;;-3.40;67.17;98675.33;1646711;85;21211;-93
2021/01/30 03:04:17;;;;;;;18.20;13.60;;;;;;;-3.37;67.10;98677.17;1645494;85;21636;-93
2021/01/30 03:11:08;;;;;;;16.60;11.43;;;;;;;-3.35;67.02;98675.73;1644375;82;21146;-93
2021/01/30 03:14:07;;;;;;;18.77;12.17;;;;;;;-3.41;67.09;98686.23;1657729;84;21148;-94
2021/01/30 03:17:25;;;;;;;14.13;11.97;;;;;;;-3.45;67.08;98687.45;1680729;83;21197;-95
2021/01/30 03:33:52;;;;;;;13.27;9.93;;;;;;;-3.74;67.43;98667.48;1775644;75;22895;-95
2021/01/30 03:47:21;;;;;;;15.80;11.33;;;;;;;-4.06;68.56;98673.45;1865413;77;23380;-94
2021/01/30 03:49:57;;;;;;;20.57;14.23;;;;;;;-4.06;68.62;98661.73;1825739;76;22891;-95
2021/01/30 03:52:24;;;;;;;18.27;13.13;;;;;;;-4.06;68.71;98662.55;1782480;79;21153;-94
2021/01/30 04:16:48;;;;;;;19.03;14.13;;;;;;;-3.95;68.51;98671.52;1586946;84;21177;-95
2021/01/30 04:20:18;;;;;;;16.97;12.27;;;;;;;-3.99;68.60;98679.75;1580166;86;21271;-92
2021/01/30 04:24:11;;;;;;;20.07;13.30;;;;;;;-3.96;68.57;98680.77;1524856;90;21209;-95
2021/01/30 04:31:09;;;;;;;24.37;14.37;;;;;;;-3.96;68.46;98662.06;1516926;90;21160;-95
2021/01/30 04:38:44;;;;;;;18.23;13.58;;;;;;;-3.93;68.32;98650.57;1655069;83;21119;-92
2021/01/30 04:42:07;;;;;;;23.67;15.07;;;;;;;-3.88;68.37;98660.56;1831062;76;22954;-90
2021/01/30 04:45:01;;;;;;;18.33;12.70;;;;;;;-3.92;68.37;98676.92;1803245;78;21239;-91
2021/01/30 04:47:34;;;;;;;28.27;17.63;;;;;;;-3.93;68.47;98672.20;1768177;78;21324;-93
2021/01/30 04:50:31;;;;;;;26.20;15.93;;;;;;;-3.98;68.46;98680.08;1751311;78;21131;-89
2021/01/30 04:53:44;;;;;;;21.23;14.20;;;;;;;-4.04;68.81;98678.03;1753371;80;21102;-92
2021/01/30 04:56:37;;;;;;;21.73;15.03;;;;;;;-4.04;68.75;98685.35;1735105;79;21219;-92
2021/01/30 04:59:30;;;;;;;21.40;14.77;;;;;;;-4.06;69.03;98681.25;1756654;81;21137;-92
2021/01/30 05:02:41;;;;;;;19.83;12.90;;;;;;;-4.18;69.15;98664.92;1762079;78;21297;-94
2021/01/30 05:05:11;;;;;;;26.03;15.20;;;;;;;-4.07;68.98;98666.58;1716763;80;21119;-91
2021/01/30 05:07:50;;;;;;;21.87;15.20;;;;;;;-4.13;69.09;98679.66;1759262;78;21176;-93
2021/01/30 05:10:42;;;;;;;21.90;16.13;;;;;;;-4.13;69.20;98671.36;1708199;80;21128;-91
2021/01/30 05:13:30;;;;;;;28.87;17.23;;;;;;;-4.13;69.14;98679.17;1641847;84;21058;-95
2021/01/30 05:16:06;;;;;;;26.60;16.57;;;;;;;-4.12;68.96;98673.51;1656133;86;21155;-92
2021/01/30 05:18:47;;;;;;;29.83;17.87;;;;;;;-4.11;69.03;98675.14;1615958;85;21207;-94
2021/01/30 05:22:00;;;;;;;25.82;16.45;;;;;;;-4.11;68.98;98675.98;1658270;85;21213;-93
2021/01/30 05:25:14;;;;;;;28.37;17.47;;;;;;;-4.13;69.06;98685.67;1635022;84;21177;-94
2021/01/30 05:28:30;;;;;;;23.23;16.70;;;;;;;-4.13;68.95;98676.56;1817927;77;23539;-96
2021/01/30 05:31:44;;;;;;;22.83;16.57;;;;;;;-4.24;68.89;98687.58;1784920;78;21111;-95
2021/01/30 05:35:05;;;;;;;;;;;;;;;;;;;;;
2021/01/30 05:38:03;;;;;;;36.63;23.67;;;;;;;-4.44;69.69;98699.74;1656201;84;21207;-95
2021/01/30 06:24:06;;;;;;;30.10;18.93;;;;;;;-4.66;69.67;98722.86;1673405;82;21147;-90
2021/01/30 06:26:44;;;;;;;27.90;18.27;;;;;;;-4.75;69.48;98724.45;1687526;82;21174;-94
2021/01/30 06:29:35;;;;;;;28.00;18.70;;;;;;;-4.79;69.51;98726.48;1695658;82;21144;-91
2021/01/30 06:32:25;;;;;;;;;;;;;;;-4.85;69.64;98737.90;1698296;82;21163;-92
2021/01/30 06:35:25;;;;;;;31.30;17.53;;;;;;;-4.85;69.77;98735.30;1683379;85;20223;-93
2021/01/30 06:38:21;;;;;;;26.33;17.47;;;;;;;-6.17;69.62;98536.35;1687751;84;21267;-93
2021/01/30 06:40:55;;;;;;;25.10;16.93;;;;;;;-4.92;69.57;98730.59;1691799;83;21157;-91
2021/01/30 06:43:56;;;;;;;24.65;15.15;;;;;;;-4.92;69.80;98731.08;1686380;85;21206;-92
2021/01/30 06:46:27;;;;;;;27.40;17.80;;;;;;;-4.88;69.72;98732.46;1663562;84;21251;-92
2021/01/30 06:52:25;;;;;;;25.17;18.32;;;;;;;-4.89;69.44;98717.35;1731113;80;21129;-95
2021/01/30 06:55:15;;;;;;;25.10;18.00;;;;;;;-4.86;69.50;98715.44;1633223;83;21252;-94
2021/01/30 06:58:09;;;;;;;28.80;18.90;;;;;;;-4.87;69.57;98719.83;1684031;82;21117;-92
2021/01/30 07:07:44;;;;;;;29.40;19.70;;;;;;;-4.76;69.26;98708.05;1722959;81;21133;-90
2021/01/30 07:10:42;;;;;;;31.53;19.80;;;;;;;-4.69;69.15;98697.92;1679656;83;21152;-91
2021/01/30 07:13:38;;;;;;;26.90;17.67;;;;;;;-4.62;69.17;98697.75;1683157;82;21242;-93
2021/01/30 07:17:01;;;;;;;30.47;20.63;;;;;;;-4.54;69.08;98703.13;1711918;82;21197;-92
2021/01/30 07:20:17;;;;;;;25.67;17.27;;;;;;;-4.43;68.75;98703.48;1703121;82;21184;-91
2021/01/30 07:22:55;;;;;;;;;;;;;;;-4.39;68.14;98701.45;1717198;81;21188;-91
2021/01/30 07:25:30;;;;;;;23.83;17.93;;;;;;;-4.45;68.06;98698.08;1671347;83;20228;-90
2021/01/30 07:28:09;;;;;;;32.07;18.87;;;;;;;-4.53;68.64;98699.56;1632832;82;21142;-92
2021/01/30 07:30:58;;;;;;;25.83;17.23;;;;;;;-4.52;68.82;98703.83;1655300;84;21630;-90
2021/01/30 07:33:45;;;;;;;30.93;18.70;;;;;;;-4.56;68.39;98697.25;1694523;84;21035;-91
2021/01/30 07:36:40;;;;;;;21.93;15.73;;;;;;;-4.59;69.03;98695.39;1788545;78;26144;-90
2021/01/30 07:39:53;;;;;;;29.17;19.47;;;;;;;-4.59;69.03;98700.59;1731300;81;21164;-91
2021/01/30 07:42:48;;;;;;;26.50;18.97;;;;;;;-4.52;69.10;98705.58;1762840;80;21156;-91
2021/01/30 07:45:36;;;;;;;29.10;20.20;;;;;;;-4.38;69.04;98696.12;1676763;83;21041;-91
2021/01/30 07:48:27;;;;;;;27.87;18.60;;;;;;;-4.21;68.66;98705.05;1670711;82;21222;-93
2021/01/30 07:51:34;;;;;;;33.50;21.17;;;;;;;-3.98;68.30;98697.00;1801353;77;22942;-92
2021/01/30 07:54:18;;;;;;;29.27;19.63;;;;;;;-3.88;67.91;98706.11;1762474;80;21111;-92
2021/01/30 07:57:13;;;;;;;31.17;20.00;;;;;;;-3.79;67.64;98695.70;1665671;78;21219;-94
2021/01/30 07:59:57;;;;;;;33.57;20.53;;;;;;;-3.66;67.16;98695.91;1640976;86;21171;-90
2021/01/30 08:03:01;;;;;;;32.60;22.30;;;;;;;-3.63;66.60;98703.46;1631606;86;21064;-92
2021/01/30 08:05:57;;;;;;;35.70;21.33;;;;;;;-3.68;66.77;98697.84;1626882;87;21133;-92
2021/01/30 08:08:44;;;;;;;32.87;20.37;;;;;;;-3.74;66.80;98703.11;1605962;85;21187;-93
2021/01/30 08:11:39;;;;;;;33.90;24.13;;;;;;;-3.80;67.09;98707.09;1631321;85;21168;-96
2021/01/30 08:15:01;;;;;;;29.33;20.17;;;;;;;-3.83;67.17;98714.34;1588900;85;21322;-93
2021/01/30 08:18:05;;;;;;;35.27;23.07;;;;;;;-3.85;67.59;98715.78;1585800;89;21211;-93
2021/01/30 08:20:57;;;;;;;33.00;23.30;;;;;;;-3.75;67.68;98723.13;1538700;89;21170;-92
2021/01/30 08:23:54;;;;;;;33.70;22.13;;;;;;;-3.66;67.43;98712.35;1558196;89;21092;-93
2021/01/30 08:27:11;;;;;;;32.90;21.30;;;;;;;-3.55;67.34;98697.07;1817948;75;22874;-92
2021/01/30 08:29:54;;;;;;;28.90;19.47;;;;;;;-3.49;67.12;98708.72;1791083;77;21137;-94
2021/01/30 08:32:30;;;;;;;31.70;21.93;;;;;;;-3.45;67.11;98708.29;1713282;80;21172;-94
2021/01/30 08:35:27;;;;;;;37.13;25.97;;;;;;;-3.42;67.13;98706.72;1717577;79;21041;-91
2021/01/30 08:38:28;;;;;;;36.70;23.93;;;;;;;-3.41;66.99;98705.77;1629160;84;21172;-86
2021/01/30 08:41:29;;;;;;;36.35;23.67;;;;;;;-3.33;67.26;98698.07;1675096;85;21081;-94
2021/01/30 08:44:45;;;;;;;38.75;25.77;;;;;;;-3.23;66.88;98703.75;1655555;83;21290;-93
2021/01/30 08:50:56;;;;;;;49.60;29.90;;;;;;;-2.99;66.25;98709.80;1626675;87;21186;-88
2021/01/30 08:53:47;;;;;;;41.80;27.62;;;;;;;-2.86;66.08;98709.47;1651717;83;21270;-93
2021/01/30 08:56:41;;;;;;;50.93;33.37;;;;;;;-2.79;65.79;98702.72;1625128;81;21132;-92
2021/01/30 08:59:52;;;;;;;49.77;32.37;;;;;;;-2.66;65.70;98699.80;1642460;81;21168;-92
2021/01/30 09:18:54;;;;;;;61.07;37.33;;;;;;;-2.72;66.21;98691.25;1718114;81;21100;-92
2021/01/30 09:22:50;;;;;;;61.33;39.53;;;;;;;-2.71;66.42;98705.45;1749874;77;21164;-93
2021/01/30 09:26:48;;;;;;;53.35;32.75;;;;;;;-2.76;66.55;98695.44;1701226;80;21171;-96
2021/01/30 09:34:27;;;;;;;55.70;36.05;;;;;;;-2.72;68.02;98688.64;1685324;82;21168;-89
2021/01/30 09:41:26;;;;;;;68.93;41.80;;;;;;;-2.68;68.61;98680.86;1694230;80;21236;-95
2021/01/30 09:44:35;;;;;;;55.65;35.30;;;;;;;-2.75;69.35;98676.23;1685458;80;23123;-95
2021/01/30 10:00:53;;;;;;;55.03;32.07;;;;;;;-2.45;70.23;98662.56;1605114;86;21133;-86
2021/01/30 10:07:54;;;;;;;41.13;24.30;;;;;;;-2.47;70.46;98658.44;1697871;80;21308;-93
2021/01/30 10:30:20;;;;;;;30.40;17.33;;;;;;;-2.79;71.47;98609.69;1752710;80;21168;-94
2021/01/30 10:33:38;;;;;;;28.33;17.87;;;;;;;-2.84;72.01;98612.39;1727572;79;21159;-93
2021/01/30 10:36:54;;;;;;;24.80;18.13;;;;;;;-2.83;72.23;98598.37;1743238;79;21151;-93
2021/01/30 10:49:58;;;;;;;22.57;16.40;;;;;;;-2.67;72.15;98588.62;1639179;84;21211;-92
2021/01/30 10:53:37;;;;;;;22.02;15.98;;;;;;;-2.58;72.14;98579.42;1613592;83;21180;-91
2021/01/30 10:57:07;;;;;;;30.73;19.33;;;;;;;-2.51;72.16;98580.94;1644087;82;21307;-93
2021/01/30 10:59:57;;;;;;;23.90;16.30;;;;;;;-2.52;72.33;98571.48;1675618;82;21412;-90
2021/01/30 11:03:25;;;;;;;27.40;21.13;;;;;;;-2.50;72.74;98570.05;1716163;79;21190;-93
2021/01/30 11:06:44;;;;;;;24.87;16.90;;;;;;;-2.53;72.86;98569.83;1671172;82;21447;-93
2021/01/30 11:09:43;;;;;;;30.80;20.27;;;;;;;-2.61;73.48;98564.55;1646961;84;21137;-93
2021/01/30 11:12:25;;;;;;;27.30;18.07;;;;;;;-2.56;73.46;98559.22;1648237;82;21219;-91
2021/01/30 11:15:54;;;;;;;28.62;20.05;;;;;;;-2.50;73.64;98558.30;1681791;81;21216;-95
2021/01/30 11:19:34;;;;;;;22.87;16.97;;;;;;;-2.38;73.40;98545.36;1675013;81;21164;-93
2021/01/30 11:22:57;;;;;;;29.50;21.00;;;;;;;-2.26;72.74;98546.78;1658353;80;21121;-92
2021/01/30 11:26:43;;;;;;;35.23;25.03;;;;;;;-2.20;72.49;98540.14;1733402;78;21171;-94
2021/01/30 11:53:18;;;;;;;25.57;17.43;;;;;;;-2.02;70.20;98478.24;1608922;84;21175;-92
2021/01/30 12:14:38;;;;;;;28.27;18.27;;;;;;;-2.45;70.04;98386.45;1631663;85;21168;-93
2021/01/30 12:24:32;;;;;;;23.97;16.53;;;;;;;-2.18;70.48;98438.51;1629598;84;21390;-93
2021/01/30 12:27:55;;;;;;;26.93;18.23;;;;;;;-2.16;70.50;98426.13;1646365;86;21279;-94
2021/01/30 12:31:14;;;;;;;25.20;17.07;;;;;;;-2.16;70.80;98435.26;1685343;82;21153;-94
2021/01/30 12:37:53;;;;;;;24.70;17.03;;;;;;;-2.16;70.94;98418.78;1709440;81;21200;-93
2021/01/30 12:41:17;;;;;;;23.97;16.80;;;;;;;-2.14;70.83;98409.50;1691742;83;21319;-96
2021/01/30 12:44:32;;;;;;;22.03;16.43;;;;;;;-2.11;70.84;98415.23;1688844;80;21547;-93
2021/01/30 13:03:36;;;;;;;19.33;15.70;;;;;;;-1.77;66.26;98194.53;1644906;84;21189;-92
2021/01/30 13:10:18;;;;;;;24.23;17.33;;;;;;;-1.08;67.64;98389.45;1598273;86;21172;-95
2021/01/30 13:13:20;;;;;;;26.87;19.13;;;;;;;-1.27;67.99;98379.61;1618899;85;21137;-95
2021/01/30 13:16:17;;;;;;;23.77;21.20;;;;;;;-1.40;68.78;98376.16;1782922;79;28240;-93
2021/01/30 13:19:33;;;;;;;24.97;19.40;;;;;;;-1.34;68.87;98378.61;1760231;77;21309;-96
2021/01/30 13:22:36;;;;;;;26.63;18.30;;;;;;;-1.31;68.47;98364.42;1774775;79;21662;-95
2021/01/30 13:25:43;;;;;;;23.33;17.87;;;;;;;-1.38;68.98;98368.97;1753097;80;21294;-96
2021/01/30 13:28:37;;;;;;;24.27;19.30;;;;;;;-1.47;69.37;98362.58;1742328;81;21250;-93
2021/01/30 13:31:22;;;;;;;27.23;18.83;;;;;;;-1.50;69.66;98351.97;1745609;81;21172;-93
2021/01/30 13:34:03;;;;;;;27.47;18.60;;;;;;;-1.55;69.91;98352.92;1722369;80;21087;-94
2021/01/30 13:37:07;;;;;;;22.60;16.80;;;;;;;-1.53;69.98;98344.44;1739933;80;21196;-94
2021/01/30 13:40:17;;;;;;;23.17;17.07;;;;;;;-1.55;69.90;98340.36;1719228;81;21159;-95
2021/01/30 13:50:42;;;;;;;31.50;22.97;;;;;;;-2.08;70.87;98333.98;1701996;82;21092;-92
2021/01/30 13:53:46;;;;;;;36.73;22.13;;;;;;;-2.14;71.28;98329.39;1651857;83;21207;-94
2021/01/30 13:57:11;;;;;;;36.93;23.77;;;;;;;-2.25;71.97;98314.81;1688188;81;21277;-96
2021/01/30 14:03:41;;;;;;;28.47;18.40;;;;;;;-2.33;72.64;98304.34;1714301;81;21162;-94
2021/01/30 14:06:55;;;;;;;45.77;27.03;;;;;;;-2.39;73.17;98307.59;1772712;79;21133;-94
2021/01/30 14:10:19;;;;;;;36.73;24.20;;;;;;;-2.48;73.48;98313.23;1776875;78;21262;-93
2021/01/30 14:13:36;;;;;;;36.03;24.73;;;;;;;-2.50;73.82;98319.10;1793958;78;21073;-94
2021/01/30 14:17:20;;;;;;;38.13;25.47;;;;;;;-2.44;73.77;98312.45;1744032;80;21122;-94
2021/01/30 14:20:43;;;;;;;40.23;26.80;;;;;;;-2.38;73.70;98313.12;1730995;81;21156;-93
2021/01/30 14:24:05;;;;;;;37.73;24.53;;;;;;;-2.30;73.56;98305.32;1710232;79;21100;-95
2021/01/30 14:27:09;;;;;;;36.97;25.23;;;;;;;-2.22;73.48;98297.55;1743347;81;21066;-93
2021/01/30 14:30:45;;;;;;;37.37;23.00;;;;;;;-2.16;73.26;98276.53;1736603;79;21285;-93
2021/01/30 14:43:12;;;;;;;35.10;23.80;;;;;;;-2.10;72.82;98260.23;1655899;83;21197;-95
2021/01/30 14:46:05;;;;;;;33.17;24.53;;;;;;;-2.10;72.78;98273.28;1657804;80;21319;-92
2021/01/30 14:48:44;;;;;;;38.97;26.03;;;;;;;-2.14;72.94;98279.80;1651783;84;21282;-96
2021/01/30 14:52:05;;;;;;;39.57;23.93;;;;;;;-2.17;72.96;98280.94;1655309;85;21155;-95
2021/01/30 14:58:49;;;;;;;36.80;24.73;;;;;;;-2.16;73.20;98273.92;1647546;84;21112;-94
2021/01/30 15:02:08;;;;;;;37.85;23.73;;;;;;;-2.14;72.97;98276.38;1651420;82;21134;-95
2021/01/30 15:05:28;;;;;;;44.30;27.83;;;;;;;-2.16;73.16;98264.28;1648760;84;21132;-91
2021/01/30 15:08:47;;;;;;;36.97;25.00;;;;;;;-2.17;73.14;98265.28;1621725;84;21192;-93
2021/01/30 15:11:48;;;;;;;39.20;25.73;;;;;;;-2.16;73.26;98270.00;1648200;85;21044;-94
2021/01/30 15:15:08;;;;;;;67.85;30.80;;;;;;;-2.10;73.25;98268.05;1668898;85;21205;-93
2021/01/30 15:18:20;;;;;;;39.50;25.60;;;;;;;-2.02;73.08;98269.88;1631384;84;21185;-92
2021/01/30 15:21:28;;;;;;;36.73;25.27;;;;;;;-2.20;72.94;98226.43;1683934;82;21169;-93
2021/01/30 15:24:37;;;;;;;41.20;26.63;;;;;;;-1.90;72.67;98260.78;1665630;81;21286;-92
2021/01/30 15:27:09;;;;;;;39.17;27.53;;;;;;;-1.83;72.51;98259.17;1673674;82;21204;-96
2021/01/30 15:29:57;;;;;;;39.77;26.53;;;;;;;-1.77;72.38;98252.00;1682591;84;21153;-92
2021/01/30 15:32:43;;;;;;;42.73;29.97;;;;;;;-1.74;72.02;98243.51;1654065;84;21203;-92
2021/01/30 15:35:26;;;;;;;37.83;26.42;;;;;;;-1.74;71.85;98244.31;1619059;84;21164;-93
2021/01/30 15:38:37;;;;;;;33.10;23.63;;;;;;;-1.77;71.88;98244.66;1613554;86;21147;-93
2021/01/30 15:41:11;;;;;;;41.60;27.80;;;;;;;-1.82;71.83;98254.27;1636902;87;21263;-96
2021/01/30 15:43:44;;;;;;;34.13;25.03;;;;;;;-1.85;72.10;98248.04;1607833;87;21371;-96
2021/01/30 15:46:53;;;;;;;38.43;25.17;;;;;;;-1.88;72.21;98240.55;1624128;84;21288;-93
2021/01/30 15:49:43;;;;;;;32.63;23.67;;;;;;;-1.86;72.30;98243.81;1593249;88;21990;-93
2021/01/30 15:52:34;;;;;;;37.17;26.62;;;;;;;-1.82;72.26;98249.04;1570585;88;21440;-93
2021/01/30 15:55:37;;;;;;;33.67;24.40;;;;;;;-1.85;72.41;98260.29;1577507;90;21052;-95
2021/01/30 15:58:09;;;;;;;39.70;24.93;;;;;;;-1.81;72.56;98251.99;1614216;86;21172;-94
2021/01/30 16:00:47;;;;;;;34.57;24.57;;;;;;;-1.77;72.60;98252.49;1613074;87;21151;-91
2021/01/30 16:03:39;;;;;;;40.60;28.93;;;;;;;-1.78;72.63;98249.53;1623739;87;21245;-95
2021/01/30 16:06:54;;;;;;;36.83;25.83;;;;;;;-1.77;72.57;98244.16;1611934;86;21157;-92
2021/01/30 16:13:14;;;;;;;34.87;24.17;;;;;;;-1.77;72.72;98229.80;1645764;84;21178;-93
2021/01/30 16:16:45;;;;;;;37.13;26.57;;;;;;;-1.72;72.67;98229.30;1656840;84;21831;-92
2021/01/30 16:20:15;;;;;;;43.33;27.93;;;;;;;-1.69;72.59;98221.64;1654714;83;21274;-91
2021/01/30 16:23:26;;;;;;;41.57;29.40;;;;;;;-1.71;72.62;98217.05;1691879;81;21457;-92
2021/01/30 16:26:42;;;;;;;39.07;26.27;;;;;;;-1.72;72.69;98216.73;1723846;81;21132;-94
2021/01/30 16:29:40;;;;;;;40.37;29.27;;;;;;;-1.71;72.72;98226.19;1700619;83;21170;-93
2021/01/30 16:32:53;;;;;;;40.58;27.87;;;;;;;-1.68;72.50;98214.92;1698245;81;21154;-92
2021/01/30 16:35:53;;;;;;;36.80;25.37;;;;;;;-1.70;72.57;98210.86;1705416;83;21601;-93
2021/01/30 16:39:14;;;;;;;42.00;29.03;;;;;;;-1.68;72.47;98208.89;1655590;82;21137;-93
2021/01/30 16:42:11;;;;;;;;;;;;;;;-1.68;72.65;98207.09;1680114;84;21163;-92
2021/01/30 16:45:33;;;;;;;41.37;27.90;;;;;;;-1.60;72.53;98201.89;1666558;83;20159;-94
2021/01/30 16:48:36;;;;;;;42.37;27.67;;;;;;;-1.64;72.40;98207.59;1697181;82;21157;-95
2021/01/30 16:51:48;;;;;;;43.27;30.33;;;;;;;-1.66;72.16;98206.44;1691443;83;21222;-94
2021/01/30 16:54:58;;;;;;;41.80;27.63;;;;;;;-1.69;72.28;98204.67;1682889;84;21139;-94
2021/01/30 17:01:38;;;;;;;51.93;31.17;;;;;;;-1.65;72.37;98192.91;1649583;82;22807;-91
2021/01/30 17:04:55;;;;;;;38.90;28.47;;;;;;;-1.63;72.27;98193.56;1588000;88;21231;-94
2021/01/30 17:11:54;;;;;;;42.90;29.73;;;;;;;-1.59;72.12;98186.52;1586596;87;21228;-94
2021/01/30 17:15:18;;;;;;;42.53;30.70;;;;;;;-1.58;72.26;98180.83;1588941;84;21309;-93
2021/01/30 17:32:03;;;;;;;51.23;32.13;;;;;;;-1.66;72.61;98179.51;1767892;77;21159;-91
2021/01/30 17:34:54;;;;;;;50.67;34.43;;;;;;;-1.62;72.55;98184.73;1748074;78;21823;-93
2021/01/30 17:37:44;;;;;;;48.80;33.67;;;;;;;-1.56;72.50;98191.94;1742294;80;21228;-91
2021/01/30 17:41:24;;;;;;;43.37;30.50;;;;;;;-1.55;72.69;98187.02;1798657;77;21089;31
2021/01/30 17:44:52;;;;;;;54.10;34.13;;;;;;;-1.50;72.68;98176.91;1775961;77;21273;-94
2021/01/30 17:48:01;;;;;;;44.80;28.80;;;;;;;-1.49;72.85;98177.70;1776419;80;21254;-93
2021/01/30 17:50:42;;;;;;;48.30;34.67;;;;;;;-1.42;72.77;98186.53;1673727;84;21774;-93
2021/01/30 17:53:32;;;;;;;60.03;42.40;;;;;;;-1.44;72.70;98183.27;1664939;84;21282;-94
2021/01/30 17:56:26;;;;;;;53.90;37.63;;;;;;;-1.42;72.74;98177.38;1668092;83;21164;-94
2021/01/30 17:59:46;;;;;;;49.08;34.05;;;;;;;-1.41;72.96;98184.25;1625090;86;21227;-92
2021/01/30 18:03:00;;;;;;;47.50;32.70;;;;;;;-1.42;72.91;98193.06;1619397;85;21215;-93
2021/01/30 18:06:26;;;;;;;50.30;34.07;;;;;;;-1.40;72.79;98164.97;1652221;84;21222;-95
2021/01/30 18:09:49;;;;;;;49.33;33.17;;;;;;;-1.39;72.68;98166.61;1695020;82;21190;-93
2021/01/30 18:13:09;;;;;;;49.80;34.13;;;;;;;-1.40;72.82;98159.23;1665129;84;21313;-93
2021/01/30 18:16:42;;;;;;;53.77;36.33;;;;;;;-1.39;72.77;98159.58;1655261;83;21579;-93
2021/01/30 18:19:56;;;;;;;54.42;36.25;;;;;;;-1.37;72.69;98155.00;1668028;82;21176;-92
2021/01/30 18:22:54;;;;;;;51.08;33.67;;;;;;;-1.33;72.53;98168.55;1658198;82;21107;-93
2021/01/30 18:26:09;;;;;;;53.40;37.77;;;;;;;-1.34;72.73;98154.34;1655905;84;21112;-92
2021/01/30 18:29:27;;;;;;;58.77;39.90;;;;;;;-1.33;72.75;98153.38;1664681;83;21152;-94
2021/01/30 18:33:07;;;;;;;61.43;40.67;;;;;;;-1.33;72.64;98151.56;1705658;81;21182;-96
2021/01/30 18:57:32;;;;;;;96.97;60.87;;;;;;;-1.47;73.54;98162.68;1638513;84;21223;-93
2021/01/30 19:00:42;;;;;;;93.10;57.07;;;;;;;-1.45;73.38;98158.10;1610380;85;21270;-93
2021/01/30 19:26:12;;;;;;;79.90;51.17;;;;;;;-1.43;73.10;98122.16;1651870;85;21275;-92
2021/01/30 19:32:41;;;;;;;82.00;54.47;;;;;;;-1.51;73.31;98128.72;1646524;83;21576;-88
2021/01/30 19:35:48;;;;;;;81.87;52.83;;;;;;;-1.47;73.41;98133.47;1611790;85;21192;-91
2021/01/30 19:39:04;;;;;;;70.80;44.70;;;;;;;-1.42;73.31;98144.72;1652381;82;21162;-91
2021/01/30 19:42:21;;;;;;;78.20;49.57;;;;;;;-1.38;73.12;98146.82;1618765;87;21193;-93
2021/01/30 19:45:08;;;;;;;69.10;44.60;;;;;;;-1.42;72.99;98144.72;1600670;86;21349;-92
2021/01/30 19:47:45;;;;;;;63.10;42.77;;;;;;;-1.41;72.94;98136.72;1565072;89;21331;-92
2021/01/30 19:50:42;;;;;;;75.60;47.97;;;;;;;-1.40;72.87;98138.33;1569980;90;21306;-92
2021/01/30 19:53:17;;;;;;;78.53;49.00;;;;;;;-1.44;72.91;98120.55;1582198;88;21216;-92
2021/01/30 19:55:52;;;;;;;72.23;46.97;;;;;;;-1.40;72.90;98118.73;1618966;86;21193;-91
2021/01/30 20:01:32;;;;;;;58.63;40.67;;;;;;;-1.28;72.56;98108.77;1643563;85;21107;-91
2021/01/30 20:04:24;;;;;;;57.43;36.70;;;;;;;-1.24;72.35;98104.02;1624358;85;21118;-91
2021/01/30 20:07:15;;;;;;;50.67;33.23;;;;;;;-1.32;72.27;98098.30;1673601;83;21189;-92
2021/01/30 20:34:59;;;;;;;57.13;36.27;;;;;;;-1.60;74.48;98135.73;1783764;79;22974;-94
2021/01/30 20:37:46;;;;;;;64.70;40.13;;;;;;;-1.64;74.40;98126.61;1751257;80;21175;-96
2021/01/30 20:40:29;;;;;;;62.60;39.90;;;;;;;-1.65;74.44;98121.07;1735330;81;21204;-93
2021/01/30 20:43:22;;;;;;;69.55;45.25;;;;;;;-1.59;74.34;98129.55;1719722;81;21143;-94